createdAt,value
2023-05-24T00:00:09.694Z,100.00
2023-05-24T00:02:38.111Z,100.00
2023-05-24T00:05:08.177Z,100.00
2023-05-24T00:07:37.135Z,100.00
2023-05-24T00:10:08.734Z,100.00
2023-05-24T00:12:36.272Z,100.00
2023-05-24T00:15:04.416Z,100.00
2023-05-24T00:17:32.333Z,100.00
2023-05-24T00:19:59.963Z,100.00
2023-05-24T00:22:27.524Z,100.00
2023-05-24T00:24:55.109Z,100.00
2023-05-24T00:27:22.628Z,100.00
2023-05-24T00:29:50.112Z,100.00
2023-05-24T00:32:17.645Z,100.00
2023-05-24T00:34:45.156Z,100.00
2023-05-24T00:37:13.021Z,100.00
2023-05-24T00:39:41.357Z,100.00
2023-05-24T00:42:08.979Z,100.00
2023-05-24T00:44:36.586Z,100.00
2023-05-24T00:47:04.591Z,100.00
2023-05-24T00:49:33.049Z,100.00
2023-05-24T00:52:01.398Z,100.00
2023-05-24T00:54:30.449Z,100.00
2023-05-24T00:56:58.518Z,100.00
2023-05-24T00:59:27.440Z,100.00
2023-05-24T01:01:55.695Z,100.00
2023-05-24T01:04:23.697Z,100.00
2023-05-24T01:07:11.049Z,100.00
2023-05-24T01:10:02.189Z,100.00
2023-05-24T01:12:53.882Z,100.00
2023-05-24T01:15:47.493Z,100.00
2023-05-24T01:18:26.337Z,100.00
2023-05-24T01:21:14.791Z,100.00
2023-05-24T01:24:13.867Z,100.00
2023-05-24T01:27:08.188Z,100.00
2023-05-24T01:29:37.062Z,100.00
2023-05-24T01:32:05.951Z,100.00
2023-05-24T01:34:33.589Z,100.00
2023-05-24T01:37:01.070Z,100.00
2023-05-24T01:39:31.051Z,100.00
2023-05-24T01:42:15.624Z,100.00
2023-05-24T01:45:05.161Z,100.00
2023-05-24T01:47:50.794Z,100.00
2023-05-24T01:50:29.845Z,100.00
2023-05-24T01:53:09.577Z,100.00
2023-05-24T01:55:38.952Z,100.00
2023-05-24T01:58:08.755Z,100.00
2023-05-24T02:00:36.600Z,100.00
2023-05-24T02:03:06.388Z,100.00
2023-05-24T02:05:34.226Z,100.00
2023-05-24T02:08:06.573Z,100.00
2023-05-24T02:10:34.069Z,100.00
2023-05-24T02:13:01.653Z,100.00
2023-05-24T02:15:30.539Z,100.00
2023-05-24T02:17:59.266Z,100.00
2023-05-24T02:20:28.627Z,100.00
2023-05-24T02:22:56.549Z,100.00
2023-05-24T02:25:27.124Z,100.00
2023-05-24T02:27:54.705Z,100.00
2023-05-24T02:30:22.177Z,100.00
2023-05-24T02:32:49.757Z,100.00
2023-05-24T02:35:17.456Z,100.00
2023-05-24T02:37:45.107Z,100.00
2023-05-24T02:40:13.589Z,100.00
2023-05-24T02:42:41.420Z,100.00
2023-05-24T02:45:09.470Z,100.00
2023-05-24T02:47:37.034Z,100.00
2023-05-24T02:50:05.012Z,100.00
2023-05-24T02:52:33.178Z,100.00
2023-05-24T02:55:00.872Z,100.00
2023-05-24T02:57:28.924Z,100.00
2023-05-24T02:59:56.482Z,100.00
2023-05-24T03:02:24.467Z,100.00
2023-05-24T03:04:52.895Z,100.00
2023-05-24T03:07:20.507Z,100.00
2023-05-24T03:09:48.047Z,100.00
2023-05-24T03:12:15.851Z,100.00
2023-05-24T03:14:43.575Z,100.00
2023-05-24T03:17:11.952Z,100.00
2023-05-24T03:19:39.546Z,100.00
2023-05-24T03:22:07.089Z,100.00
2023-05-24T03:24:38.546Z,100.00
2023-05-24T03:27:08.807Z,100.00
2023-05-24T03:29:36.429Z,100.00
2023-05-24T03:32:04.743Z,100.00
2023-05-24T03:34:32.412Z,100.00
2023-05-24T03:37:00.374Z,100.00
2023-05-24T03:39:28.373Z,100.00
2023-05-24T03:42:03.626Z,100.00
2023-05-24T03:44:32.376Z,100.00
2023-05-24T03:47:00.470Z,100.00
2023-05-24T03:49:28.800Z,100.00
2023-05-24T03:51:56.462Z,100.00
2023-05-24T03:54:24.033Z,100.00
2023-05-24T03:56:53.552Z,100.00
2023-05-24T03:59:22.536Z,100.00
2023-05-24T04:01:50.193Z,100.00
2023-05-24T04:04:18.008Z,100.00
2023-05-24T04:06:45.595Z,100.00
2023-05-24T04:09:14.900Z,100.00
2023-05-24T04:11:42.700Z,100.00
2023-05-24T04:14:12.553Z,100.00
2023-05-24T04:16:41.742Z,100.00
2023-05-24T04:19:09.405Z,100.00
2023-05-24T04:21:38.346Z,100.00
2023-05-24T04:24:07.200Z,100.00
2023-05-24T04:26:37.888Z,100.00
2023-05-24T04:29:05.637Z,100.00
2023-05-24T04:31:34.633Z,100.00
2023-05-24T04:34:03.422Z,100.00
2023-05-24T04:36:34.012Z,100.00
2023-05-24T04:39:04.871Z,100.00
2023-05-24T04:41:32.538Z,100.00
2023-05-24T04:44:00.169Z,100.00
2023-05-24T04:46:27.857Z,100.00
2023-05-24T04:48:55.488Z,100.00
2023-05-24T04:51:23.633Z,100.00
2023-05-24T04:53:51.261Z,100.00
2023-05-24T04:56:20.155Z,100.00
2023-05-24T04:58:48.797Z,100.00
2023-05-24T05:01:16.341Z,100.00
2023-05-24T05:03:46.215Z,100.00
2023-05-24T05:06:13.962Z,100.00
2023-05-24T05:08:41.597Z,100.00
2023-05-24T05:11:09.496Z,100.00
2023-05-24T05:13:37.032Z,100.00
2023-05-24T05:16:05.466Z,100.00
2023-05-24T05:18:34.057Z,100.00
2023-05-24T05:21:03.178Z,99.94
2023-05-24T05:23:31.388Z,100.00
2023-05-24T05:25:59.081Z,100.00
2023-05-24T05:28:26.614Z,100.00
2023-05-24T05:30:54.175Z,100.00
2023-05-24T05:33:21.716Z,100.00
2023-05-24T05:35:49.333Z,100.00
2023-05-24T05:38:17.092Z,100.00
2023-05-24T05:40:44.754Z,100.00
2023-05-24T05:43:12.398Z,99.13
2023-05-24T05:45:40.378Z,98.96
2023-05-24T05:48:08.133Z,99.46
2023-05-24T05:50:35.716Z,96.15
2023-05-24T05:53:03.692Z,96.55
2023-05-24T05:55:31.274Z,97.05
2023-05-24T05:57:58.832Z,95.92
2023-05-24T06:00:26.678Z,95.03
2023-05-24T06:02:54.336Z,92.31
2023-05-24T06:05:22.178Z,91.07
2023-05-24T06:07:49.884Z,90.54
2023-05-24T06:10:17.612Z,89.99
2023-05-24T06:12:45.196Z,90.94
2023-05-24T06:15:14.198Z,90.31
2023-05-24T06:17:43.860Z,91.73
2023-05-24T06:20:17.801Z,88.59
2023-05-24T06:22:46.380Z,85.96
2023-05-24T06:25:15.502Z,86.01
2023-05-24T06:27:44.014Z,83.42
2023-05-24T06:30:13.521Z,82.64
2023-05-24T06:32:41.325Z,82.61
2023-05-24T06:35:09.665Z,82.66
2023-05-24T06:37:38.724Z,84.46
2023-05-24T06:40:11.457Z,83.67
2023-05-24T06:42:40.918Z,81.10
2023-05-24T06:45:09.463Z,80.18
2023-05-24T06:47:37.298Z,79.98
2023-05-24T06:50:05.564Z,81.01
2023-05-24T06:52:34.346Z,81.93
2023-05-24T06:55:01.899Z,77.88
2023-05-24T06:57:29.488Z,79.12
2023-05-24T06:59:57.343Z,79.32
2023-05-24T07:02:27.675Z,77.38
2023-05-24T07:04:55.721Z,78.87
2023-05-24T07:07:23.380Z,79.11
2023-05-24T07:09:51.187Z,79.82
2023-05-24T07:12:18.822Z,78.36
2023-05-24T07:14:47.753Z,77.86
2023-05-24T07:17:15.410Z,76.36
2023-05-24T07:19:43.004Z,76.40
2023-05-24T07:22:11.188Z,75.99
2023-05-24T07:24:39.056Z,77.68
2023-05-24T07:27:06.677Z,73.91
2023-05-24T07:29:34.297Z,71.82
2023-05-24T07:32:01.879Z,72.83
2023-05-24T07:34:30.280Z,74.85
2023-05-24T07:37:00.733Z,76.76
2023-05-24T07:39:28.950Z,70.78
2023-05-24T07:41:56.720Z,69.94
2023-05-24T07:44:24.365Z,70.55
2023-05-24T07:46:52.216Z,70.28
2023-05-24T07:49:20.096Z,72.63
2023-05-24T07:51:48.201Z,67.48
2023-05-24T07:54:16.143Z,67.98
2023-05-24T07:56:43.748Z,70.28
2023-05-24T07:59:11.483Z,66.80
2023-05-24T08:01:38.970Z,65.18
2023-05-24T08:04:08.858Z,59.57
2023-05-24T08:06:36.937Z,59.42
2023-05-24T08:09:05.347Z,58.84
2023-05-24T08:11:32.892Z,58.21
2023-05-24T08:14:00.495Z,59.07
2023-05-24T08:16:28.108Z,58.08
2023-05-24T08:18:55.733Z,60.54
2023-05-24T08:21:23.698Z,61.58
2023-05-24T08:23:51.307Z,58.23
2023-05-24T08:26:20.927Z,53.47
2023-05-24T08:28:48.944Z,55.12
2023-05-24T08:31:17.088Z,55.59
2023-05-24T08:33:45.708Z,55.33
2023-05-24T08:36:13.271Z,57.01
2023-05-24T08:38:40.751Z,57.20
2023-05-24T08:41:08.559Z,56.20
2023-05-24T08:43:36.192Z,55.35
2023-05-24T08:46:05.948Z,56.67
2023-05-24T08:48:36.512Z,58.03
2023-05-24T08:51:04.401Z,57.62
2023-05-24T08:53:34.190Z,55.63
2023-05-24T08:56:01.952Z,53.32
2023-05-24T08:58:30.572Z,54.45
2023-05-24T09:00:59.727Z,52.23
2023-05-24T09:03:28.108Z,51.48
2023-05-24T09:05:56.051Z,54.11
2023-05-24T09:08:23.819Z,50.51
2023-05-24T09:10:55.352Z,48.94
2023-05-24T09:13:25.286Z,48.90
2023-05-24T09:15:54.486Z,46.38
2023-05-24T09:18:22.037Z,48.39
2023-05-24T09:20:49.773Z,47.82
2023-05-24T09:23:18.476Z,47.63
2023-05-24T09:25:47.474Z,47.82
2023-05-24T09:28:18.243Z,45.09
2023-05-24T09:31:08.049Z,45.27
2023-05-24T09:33:36.606Z,43.92
2023-05-24T09:36:07.143Z,42.67
2023-05-24T09:38:36.769Z,41.77
2023-05-24T09:41:08.867Z,44.09
2023-05-24T09:43:49.712Z,41.69
2023-05-24T09:46:20.073Z,43.26
2023-05-24T09:49:03.697Z,43.02
2023-05-24T09:51:31.392Z,42.54
2023-05-24T09:54:03.736Z,43.33
2023-05-24T09:56:34.104Z,42.77
2023-05-24T09:59:10.475Z,43.82
2023-05-24T10:01:38.498Z,41.75
2023-05-24T10:04:10.027Z,42.55
2023-05-24T10:06:40.177Z,44.13
2023-05-24T10:09:10.057Z,44.06
2023-05-24T10:11:38.417Z,45.29
2023-05-24T10:14:07.461Z,44.51
2023-05-24T10:16:37.275Z,44.84
2023-05-24T10:19:07.412Z,43.39
2023-05-24T10:21:39.002Z,43.62
2023-05-24T10:24:09.214Z,43.26
2023-05-24T10:26:40.084Z,44.18
2023-05-24T10:29:14.539Z,44.06
2023-05-24T10:31:43.491Z,42.91
2023-05-24T10:34:11.606Z,44.88
2023-05-24T10:36:41.530Z,45.43
2023-05-24T10:39:12.732Z,46.06
2023-05-24T10:41:42.192Z,45.53
2023-05-24T10:44:18.736Z,44.51
2023-05-24T10:47:10.145Z,44.82
2023-05-24T10:50:00.262Z,45.03
2023-05-24T10:52:37.518Z,44.08
2023-05-24T10:55:09.551Z,43.50
2023-05-24T10:57:39.057Z,42.14
2023-05-24T11:00:35.426Z,42.73
2023-05-24T11:03:23.510Z,39.62
2023-05-24T11:05:59.291Z,39.50
2023-05-24T11:08:33.401Z,41.91
2023-05-24T11:11:31.188Z,40.87
2023-05-24T11:14:01.841Z,40.21
2023-05-24T11:16:40.967Z,40.01
2023-05-24T11:19:18.830Z,39.63
2023-05-24T11:21:53.455Z,40.08
2023-05-24T11:24:22.335Z,40.02
2023-05-24T11:26:51.552Z,40.05
2023-05-24T11:29:23.356Z,42.05
2023-05-24T11:31:57.853Z,39.22
2023-05-24T11:34:27.439Z,39.10
2023-05-24T11:36:55.483Z,38.56
2023-05-24T11:39:27.045Z,36.44
2023-05-24T11:41:55.143Z,40.37
2023-05-24T11:44:23.859Z,38.63
2023-05-24T11:47:00.745Z,37.80
2023-05-24T11:49:28.967Z,37.58
2023-05-24T11:51:58.036Z,36.61
2023-05-24T11:54:27.683Z,37.21
2023-05-24T11:56:55.750Z,34.96
2023-05-24T11:59:29.076Z,36.33
2023-05-24T12:02:05.630Z,35.73
2023-05-24T12:04:37.292Z,36.26
2023-05-24T12:07:05.700Z,36.76
2023-05-24T12:09:33.625Z,39.05
2023-05-24T12:12:30.292Z,37.20
2023-05-24T12:15:01.875Z,37.43
2023-05-24T12:17:29.472Z,37.23
2023-05-24T12:19:57.218Z,36.89
2023-05-24T12:22:30.872Z,36.12
2023-05-24T12:24:59.412Z,38.52
2023-05-24T12:27:30.852Z,35.03
2023-05-24T12:30:10.007Z,35.49
2023-05-24T12:32:37.631Z,35.78
2023-05-24T12:35:09.262Z,35.64
2023-05-24T12:37:36.800Z,34.16
2023-05-24T12:40:14.293Z,33.35
2023-05-24T12:42:43.229Z,35.38
2023-05-24T12:45:13.853Z,33.72
2023-05-24T12:47:43.201Z,34.09
2023-05-24T12:50:11.623Z,34.73
2023-05-24T12:52:39.122Z,33.70
2023-05-24T12:55:10.366Z,34.33
2023-05-24T12:57:38.486Z,34.43
2023-05-24T13:00:27.283Z,34.51
2023-05-24T13:03:01.238Z,33.87
2023-05-24T13:05:30.128Z,34.10
2023-05-24T13:07:58.668Z,33.21
2023-05-24T13:10:26.561Z,34.62
2023-05-24T13:12:54.312Z,33.85
2023-05-24T13:15:24.073Z,32.84
2023-05-24T13:17:51.717Z,33.01
2023-05-24T13:20:24.160Z,31.97
2023-05-24T13:22:53.864Z,33.98
2023-05-24T13:25:22.651Z,35.55
2023-05-24T13:27:50.436Z,37.40
2023-05-24T13:30:18.020Z,40.91
2023-05-24T13:32:48.735Z,43.10
2023-05-24T13:35:16.756Z,44.01
2023-05-24T13:37:44.436Z,44.95
2023-05-24T13:40:12.396Z,46.21
2023-05-24T13:42:40.437Z,45.30
2023-05-24T13:45:09.076Z,43.73
2023-05-24T13:47:40.876Z,44.42
2023-05-24T13:50:10.338Z,44.18
2023-05-24T13:52:38.406Z,45.55
2023-05-24T13:55:06.820Z,44.42
2023-05-24T13:57:50.382Z,44.99
2023-05-24T14:00:20.519Z,46.80
2023-05-24T14:02:51.829Z,46.94
2023-05-24T14:05:26.643Z,46.88
2023-05-24T14:07:56.308Z,50.34
2023-05-24T14:10:24.481Z,51.01
2023-05-24T14:13:11.828Z,52.60
2023-05-24T14:15:44.966Z,52.03
2023-05-24T14:18:14.323Z,50.01
2023-05-24T14:20:44.252Z,51.93
2023-05-24T14:23:12.988Z,53.05
2023-05-24T14:25:46.548Z,53.97
2023-05-24T14:28:14.643Z,52.83
2023-05-24T14:30:42.314Z,54.14
2023-05-24T14:33:11.997Z,55.41
2023-05-24T14:35:40.235Z,56.24
2023-05-24T14:38:10.682Z,58.21
2023-05-24T14:40:42.743Z,57.26
2023-05-24T14:43:13.912Z,58.85
2023-05-24T14:45:48.298Z,59.46
2023-05-24T14:48:17.530Z,57.62
2023-05-24T14:50:46.875Z,56.26
2023-05-24T14:53:18.640Z,57.15
2023-05-24T14:55:49.639Z,55.49
2023-05-24T14:58:17.264Z,53.02
2023-05-24T15:00:47.942Z,50.68
2023-05-24T15:03:18.670Z,50.30
2023-05-24T15:05:49.135Z,51.04
2023-05-24T15:08:16.916Z,50.46
2023-05-24T15:10:45.993Z,51.16
2023-05-24T15:13:14.098Z,52.14
2023-05-24T15:15:45.768Z,53.08
2023-05-24T15:18:13.570Z,54.84
2023-05-24T15:20:43.508Z,57.48
2023-05-24T15:23:13.373Z,56.81
2023-05-24T15:25:42.856Z,54.39
2023-05-24T15:28:12.916Z,55.74
2023-05-24T15:30:44.456Z,56.30
2023-05-24T15:33:13.661Z,56.38
2023-05-24T15:35:41.651Z,56.55
2023-05-24T15:38:09.279Z,57.58
2023-05-24T15:40:38.567Z,58.91
2023-05-24T15:43:08.313Z,59.46
2023-05-24T15:45:38.089Z,59.77
2023-05-24T15:48:05.869Z,60.64
2023-05-24T15:50:49.333Z,63.60
2023-05-24T15:53:25.404Z,65.04
2023-05-24T15:55:55.650Z,63.66
2023-05-24T15:58:23.237Z,63.38
2023-05-24T16:00:53.496Z,60.62
2023-05-24T16:03:26.853Z,59.43
2023-05-24T16:05:55.211Z,61.52
2023-05-24T16:08:27.804Z,64.03
2023-05-24T16:10:56.398Z,65.14
2023-05-24T16:13:28.364Z,65.97
2023-05-24T16:15:56.257Z,67.81
2023-05-24T16:18:23.902Z,70.55
2023-05-24T16:20:52.093Z,67.42
2023-05-24T16:23:28.589Z,66.90
2023-05-24T16:25:56.899Z,68.14
2023-05-24T16:28:25.152Z,64.97
2023-05-24T16:30:56.080Z,60.04
2023-05-24T16:33:25.200Z,60.53
2023-05-24T16:35:58.178Z,58.71
2023-05-24T16:38:27.018Z,59.81
2023-05-24T16:40:55.809Z,63.08
2023-05-24T16:43:24.033Z,64.53
2023-05-24T16:45:51.989Z,65.70
2023-05-24T16:48:21.981Z,63.25
2023-05-24T16:50:51.677Z,64.58
2023-05-24T16:53:22.947Z,65.48
2023-05-24T16:55:53.910Z,68.05
2023-05-24T16:58:28.085Z,65.35
2023-05-24T17:00:57.428Z,67.86
2023-05-24T17:03:30.661Z,70.88
2023-05-24T17:06:05.228Z,71.21
2023-05-24T17:08:38.045Z,73.93
2023-05-24T17:11:26.093Z,76.30
2023-05-24T17:13:53.613Z,77.49
2023-05-24T17:16:21.998Z,78.95
2023-05-24T17:18:51.152Z,78.23
2023-05-24T17:21:18.781Z,79.16
2023-05-24T17:23:48.738Z,79.24
2023-05-24T17:26:18.321Z,80.15
2023-05-24T17:28:47.371Z,80.26
2023-05-24T17:31:18.264Z,81.52
2023-05-24T17:33:46.321Z,81.22
2023-05-24T17:36:17.712Z,81.40
2023-05-24T17:38:49.782Z,81.40
2023-05-24T17:41:17.706Z,81.22
2023-05-24T17:43:46.767Z,81.76
2023-05-24T17:46:14.573Z,82.35
2023-05-24T17:48:45.561Z,82.05
2023-05-24T17:51:20.827Z,82.62
2023-05-24T17:53:51.461Z,82.92
2023-05-24T17:56:23.580Z,83.26
2023-05-24T17:58:51.543Z,83.42
2023-05-24T18:01:19.650Z,83.77
2023-05-24T18:03:53.605Z,84.34
2023-05-24T18:06:21.297Z,84.62
2023-05-24T18:08:48.831Z,85.19
2023-05-24T18:11:16.456Z,85.10
2023-05-24T18:14:04.564Z,85.17
2023-05-24T18:16:32.258Z,85.70
2023-05-24T18:18:59.885Z,85.81
2023-05-24T18:21:48.467Z,86.53
2023-05-24T18:24:16.565Z,87.19
2023-05-24T18:26:47.230Z,87.47
2023-05-24T18:29:17.030Z,87.61
2023-05-24T18:31:46.280Z,87.96
2023-05-24T18:34:14.371Z,87.98
2023-05-24T18:36:43.852Z,88.34
2023-05-24T18:39:11.438Z,88.65
2023-05-24T18:41:39.506Z,87.94
2023-05-24T18:44:08.227Z,88.57
2023-05-24T18:46:38.199Z,89.59
2023-05-24T18:49:10.928Z,90.09
2023-05-24T18:51:39.228Z,90.33
2023-05-24T18:54:06.864Z,90.70
2023-05-24T18:56:37.981Z,91.09
2023-05-24T18:59:09.474Z,91.23
2023-05-24T19:01:38.607Z,91.46
2023-05-24T19:04:06.284Z,92.14
2023-05-24T19:06:34.232Z,92.75
2023-05-24T19:09:04.379Z,93.71
2023-05-24T19:11:31.954Z,94.06
2023-05-24T19:13:59.529Z,94.90
2023-05-24T19:16:27.644Z,95.14
2023-05-24T19:18:56.256Z,95.25
2023-05-24T19:21:24.788Z,95.11
2023-05-24T19:23:52.613Z,95.77
2023-05-24T19:26:24.004Z,96.08
2023-05-24T19:28:56.639Z,97.11
2023-05-24T19:31:25.832Z,98.43
2023-05-24T19:34:00.675Z,98.02
2023-05-24T19:36:32.928Z,97.72
2023-05-24T19:39:01.650Z,98.56
2023-05-24T19:41:29.349Z,98.43
2023-05-24T19:44:00.435Z,98.54
2023-05-24T19:46:28.726Z,98.11
2023-05-24T19:48:58.181Z,98.48
2023-05-24T19:51:27.177Z,98.62
2023-05-24T19:53:56.568Z,98.61
2023-05-24T19:56:24.183Z,98.45
2023-05-24T19:59:11.684Z,98.98
2023-05-24T20:01:42.992Z,98.50
2023-05-24T20:04:12.264Z,98.73
2023-05-24T20:06:41.683Z,98.96
2023-05-24T20:09:10.358Z,99.65
2023-05-24T20:11:39.399Z,99.82
2023-05-24T20:14:07.483Z,100.00
2023-05-24T20:16:35.153Z,99.32
2023-05-24T20:19:03.136Z,98.72
2023-05-24T20:21:31.313Z,98.20
2023-05-24T20:23:59.987Z,98.57
2023-05-24T20:26:29.341Z,99.76
2023-05-24T20:28:57.142Z,98.94
2023-05-24T20:31:26.015Z,99.44
2023-05-24T20:33:56.072Z,99.50
2023-05-24T20:36:23.823Z,99.63
2023-05-24T20:38:52.967Z,99.89
2023-05-24T20:41:21.956Z,100.00
2023-05-24T20:43:51.521Z,100.00
2023-05-24T20:46:19.340Z,100.00
2023-05-24T20:48:46.884Z,99.63
2023-05-24T20:51:14.456Z,99.99
2023-05-24T20:53:41.964Z,100.00
2023-05-24T20:56:09.515Z,100.00
2023-05-24T20:58:37.208Z,100.00
2023-05-24T21:01:04.903Z,100.00
2023-05-24T21:03:32.468Z,100.00
2023-05-24T21:05:59.955Z,100.00
2023-05-24T21:08:27.510Z,100.00
2023-05-24T21:10:57.482Z,100.00
2023-05-24T21:13:25.659Z,100.00
2023-05-24T21:15:55.063Z,100.00
2023-05-24T21:18:22.935Z,100.00
2023-05-24T21:20:51.837Z,100.00
2023-05-24T21:23:19.918Z,100.00
2023-05-24T21:25:49.871Z,100.00
2023-05-24T21:28:17.774Z,100.00
2023-05-24T21:30:45.359Z,100.00
2023-05-24T21:33:13.055Z,100.00
2023-05-24T21:35:41.092Z,100.00
2023-05-24T21:38:08.925Z,100.00
2023-05-24T21:40:37.567Z,100.00
2023-05-24T21:43:09.680Z,100.00
2023-05-24T21:45:37.256Z,100.00
2023-05-24T21:48:07.293Z,100.00
2023-05-24T21:50:35.941Z,100.00
2023-05-24T21:53:05.400Z,100.00
2023-05-24T21:55:33.120Z,100.00
2023-05-24T21:58:01.202Z,100.00
2023-05-24T22:00:29.810Z,100.00
2023-05-24T22:03:17.832Z,97.43
2023-05-24T22:05:45.644Z,95.02
2023-05-24T22:08:13.383Z,97.07
2023-05-24T22:10:44.927Z,97.49
2023-05-24T22:13:12.641Z,99.96
2023-05-24T22:15:40.165Z,100.00
2023-05-24T22:18:08.768Z,100.00
2023-05-24T22:20:36.876Z,100.00
2023-05-24T22:23:04.440Z,100.00
2023-05-24T22:25:31.936Z,100.00
2023-05-24T22:27:59.470Z,100.00
2023-05-24T22:30:27.150Z,100.00
2023-05-24T22:32:55.886Z,100.00
2023-05-24T22:35:23.561Z,100.00
2023-05-24T22:37:52.322Z,100.00
2023-05-24T22:40:20.988Z,100.00
2023-05-24T22:42:48.521Z,100.00
2023-05-24T22:45:18.638Z,100.00
2023-05-24T22:47:51.790Z,100.00
2023-05-24T22:50:21.029Z,100.00
2023-05-24T22:52:48.646Z,100.00
2023-05-24T22:55:16.299Z,100.00
2023-05-24T22:57:43.834Z,100.00
2023-05-24T23:00:13.018Z,100.00
2023-05-24T23:02:40.583Z,100.00
2023-05-24T23:05:09.566Z,100.00
2023-05-24T23:07:38.124Z,100.00
2023-05-24T23:10:06.299Z,100.00
2023-05-24T23:12:34.269Z,100.00
2023-05-24T23:15:01.912Z,100.00
2023-05-24T23:17:29.513Z,100.00
2023-05-24T23:19:57.242Z,100.00
2023-05-24T23:22:26.277Z,100.00
2023-05-24T23:24:53.812Z,100.00
2023-05-24T23:27:21.396Z,100.00
2023-05-24T23:29:48.992Z,100.00
2023-05-24T23:32:17.731Z,100.00
2023-05-24T23:34:45.225Z,100.00
2023-05-24T23:37:12.862Z,100.00
2023-05-24T23:39:40.404Z,100.00
2023-05-24T23:42:08.051Z,100.00
2023-05-24T23:44:36.278Z,100.00
2023-05-24T23:47:04.167Z,100.00
2023-05-24T23:49:31.848Z,100.00
2023-05-24T23:51:59.767Z,100.00
2023-05-24T23:54:27.280Z,100.00
2023-05-24T23:56:54.789Z,100.00
2023-05-24T23:59:23.672Z,100.00
